createdAt,value
2022-08-01T00:00:09.142Z,100143.16
2022-08-01T00:02:36.833Z,100141.53
2022-08-01T00:05:03.623Z,100149.28
2022-08-01T00:07:30.224Z,100136.94
2022-08-01T00:09:56.746Z,100137.28
2022-08-01T00:12:23.314Z,100143.13
2022-08-01T00:14:50.056Z,100142.63
2022-08-01T00:17:16.790Z,100131.22
2022-08-01T00:19:43.332Z,100132.69
2022-08-01T00:22:10.177Z,100140.28
2022-08-01T00:24:36.864Z,100138.63
2022-08-01T00:27:03.482Z,100122.78
2022-08-01T00:30:11.862Z,100135.81
2022-08-01T00:32:16.915Z,100127.00
2022-08-01T00:34:43.455Z,100129.34
2022-08-01T00:37:10.370Z,100120.72
2022-08-01T00:39:42.077Z,100119.63
2022-08-01T00:42:10.447Z,100123.97
2022-08-01T00:44:37.230Z,100119.44
2022-08-01T00:47:04.602Z,100120.38
2022-08-01T00:49:31.667Z,100115.97
2022-08-01T00:51:59.418Z,100120.41
2022-08-01T00:54:27.695Z,100122.84
2022-08-01T00:56:55.040Z,100117.94
2022-08-01T00:59:25.932Z,100120.00
2022-08-01T01:01:53.709Z,100125.63
2022-08-01T01:04:20.486Z,100121.78
2022-08-01T01:06:49.867Z,100117.91
2022-08-01T01:09:22.092Z,100119.56
2022-08-01T01:12:06.000Z,100117.56
2022-08-01T01:14:39.035Z,100125.19
2022-08-01T01:17:09.896Z,100128.56
2022-08-01T01:19:44.198Z,100133.63
2022-08-01T01:22:47.347Z,100138.22
2022-08-01T01:25:23.068Z,100128.06
2022-08-01T01:28:03.169Z,100132.63
2022-08-01T01:30:31.981Z,100123.44
2022-08-01T01:33:02.209Z,100126.94
2022-08-01T01:35:33.470Z,100116.81
2022-08-01T01:38:10.170Z,100121.56
2022-08-01T01:40:39.013Z,100119.34
2022-08-01T01:43:10.653Z,100126.31
2022-08-01T01:45:38.465Z,100116.34
2022-08-01T01:48:07.442Z,100116.22
2022-08-01T01:50:35.787Z,100112.13
2022-08-01T01:53:05.113Z,100112.63
2022-08-01T01:55:33.505Z,100115.00
2022-08-01T01:58:16.979Z,100099.09
2022-08-01T02:00:45.554Z,100103.50
2022-08-01T02:03:13.351Z,100102.47
2022-08-01T02:05:43.146Z,100106.56
2022-08-01T02:08:11.855Z,100104.50
2022-08-01T02:10:40.255Z,100099.59
2022-08-01T02:13:07.569Z,100102.19
2022-08-01T02:15:59.913Z,100095.31
2022-08-01T02:18:26.858Z,100093.03
2022-08-01T02:20:55.871Z,100099.97
2022-08-01T02:23:25.146Z,100089.47
2022-08-01T02:26:09.627Z,100080.41
2022-08-01T02:28:46.673Z,100080.84
2022-08-01T02:31:15.431Z,100081.13
2022-08-01T02:33:49.286Z,100085.91
2022-08-01T02:36:31.206Z,100074.38
2022-08-01T02:39:04.404Z,100089.47
2022-08-01T02:41:32.590Z,100087.44
2022-08-01T02:44:04.283Z,100092.53
2022-08-01T02:46:53.112Z,100091.25
2022-08-01T02:49:22.201Z,100084.47
2022-08-01T02:51:50.223Z,100089.91
2022-08-01T02:54:19.743Z,100079.59
2022-08-01T02:56:49.341Z,100078.81
2022-08-01T02:59:21.408Z,100073.06
2022-08-01T03:01:50.874Z,100070.50
2022-08-01T03:04:19.806Z,100072.81
2022-08-01T03:06:48.365Z,100074.28
2022-08-01T03:09:16.823Z,100068.00
2022-08-01T03:11:45.211Z,100074.97
2022-08-01T03:14:13.814Z,100071.97
2022-08-01T03:16:43.439Z,100077.56
2022-08-01T03:19:11.935Z,100072.19
2022-08-01T03:21:40.569Z,100068.91
2022-08-01T03:24:08.474Z,100071.31
2022-08-01T03:26:37.116Z,100070.84
2022-08-01T03:29:10.882Z,100071.25
2022-08-01T03:31:39.365Z,100071.63
2022-08-01T03:34:07.044Z,100067.53
2022-08-01T03:36:35.625Z,100064.31
2022-08-01T03:39:05.067Z,100059.75
2022-08-01T03:41:38.663Z,100064.69
2022-08-01T03:44:11.322Z,100066.31
2022-08-01T03:46:43.461Z,100068.66
2022-08-01T03:49:24.667Z,100067.63
2022-08-01T03:51:52.453Z,100074.97
2022-08-01T03:54:23.841Z,100070.13
2022-08-01T03:56:52.473Z,100079.34
2022-08-01T03:59:20.132Z,100074.28
2022-08-01T04:01:47.511Z,100079.75
2022-08-01T04:04:14.651Z,100087.53
2022-08-01T04:06:42.403Z,100088.03
2022-08-01T04:09:13.399Z,100090.00
2022-08-01T04:11:40.952Z,100096.47
2022-08-01T04:14:08.672Z,100098.16
2022-08-01T04:16:36.206Z,100095.63
2022-08-01T04:19:03.641Z,100104.34
2022-08-01T04:21:33.378Z,100101.84
2022-08-01T04:24:05.957Z,100096.47
2022-08-01T04:26:35.774Z,100100.09
2022-08-01T04:29:05.868Z,100102.34
2022-08-01T04:31:33.580Z,100097.47
2022-08-01T04:34:03.226Z,100101.88
2022-08-01T04:36:31.284Z,100096.63
2022-08-01T04:39:01.216Z,100089.50
2022-08-01T04:41:28.783Z,100089.13
2022-08-01T04:43:56.054Z,100088.75
2022-08-01T04:46:23.583Z,100091.94
2022-08-01T04:48:51.495Z,100095.19
2022-08-01T04:51:22.837Z,100095.44
2022-08-01T04:53:51.925Z,100094.03
2022-08-01T04:56:20.043Z,100091.78
2022-08-01T04:58:46.562Z,100096.47
2022-08-01T05:01:13.949Z,100090.50
2022-08-01T05:03:40.715Z,100101.25
2022-08-01T05:06:07.523Z,100104.53
2022-08-01T05:08:34.129Z,100101.31
2022-08-01T05:11:02.154Z,100088.06
2022-08-01T05:13:28.853Z,100081.91
2022-08-01T05:15:55.455Z,100091.44
2022-08-01T05:18:28.288Z,100094.81
2022-08-01T05:20:55.187Z,100094.66
2022-08-01T05:23:40.376Z,100089.81
2022-08-01T05:26:08.907Z,100094.75
2022-08-01T05:28:36.421Z,100090.66
2022-08-01T05:31:04.318Z,100098.84
2022-08-01T05:33:30.875Z,100095.38
2022-08-01T05:35:57.452Z,100096.47
2022-08-01T05:38:23.966Z,100096.69
2022-08-01T05:40:50.687Z,100093.56
2022-08-01T05:43:17.293Z,100092.97
2022-08-01T05:45:43.898Z,100095.91
2022-08-01T05:48:10.499Z,100097.84
2022-08-01T05:50:37.101Z,100092.84
2022-08-01T05:53:03.627Z,100095.19
2022-08-01T05:55:30.307Z,100089.56
2022-08-01T05:57:56.810Z,100086.63
2022-08-01T06:00:23.530Z,100094.66
2022-08-01T06:02:50.101Z,100097.38
2022-08-01T06:05:16.790Z,100096.81
2022-08-01T06:07:43.439Z,100098.94
2022-08-01T06:10:10.311Z,100097.03
2022-08-01T06:12:37.684Z,100102.53
2022-08-01T06:15:05.841Z,100098.13
2022-08-01T06:17:32.545Z,100097.28
2022-08-01T06:19:59.082Z,100103.19
2022-08-01T06:22:25.627Z,100111.38
2022-08-01T06:24:52.544Z,100103.38
2022-08-01T06:27:21.948Z,100109.88
2022-08-01T06:29:53.586Z,100095.75
2022-08-01T06:32:26.828Z,100100.53
2022-08-01T06:34:53.960Z,100103.88
2022-08-01T06:37:20.509Z,100098.16
2022-08-01T06:39:47.127Z,100109.88
2022-08-01T06:42:15.830Z,100107.09
2022-08-01T06:44:42.693Z,100105.63
2022-08-01T06:47:09.220Z,100106.03
2022-08-01T06:49:36.049Z,100109.59
2022-08-01T06:52:04.425Z,100102.59
2022-08-01T06:54:31.238Z,100095.34
2022-08-01T06:56:57.758Z,100097.81
2022-08-01T06:59:24.308Z,100095.00
2022-08-01T07:01:50.919Z,100097.31
2022-08-01T07:04:17.479Z,100098.72
2022-08-01T07:06:44.018Z,100088.94
2022-08-01T07:09:14.217Z,100089.69
2022-08-01T07:11:42.025Z,100082.63
2022-08-01T07:14:09.008Z,100085.69
2022-08-01T07:16:35.620Z,100082.44
2022-08-01T07:19:02.319Z,100085.50
2022-08-01T07:21:40.345Z,100083.88
2022-08-01T07:24:13.259Z,100081.22
2022-08-01T07:26:53.133Z,100081.69
2022-08-01T07:29:22.983Z,100090.00
2022-08-01T07:31:49.547Z,100095.78
2022-08-01T07:34:16.062Z,100086.50
2022-08-01T07:36:43.455Z,100097.22
2022-08-01T07:39:09.990Z,100087.47
2022-08-01T07:41:52.768Z,100088.47
2022-08-01T07:44:23.282Z,100096.66
2022-08-01T07:46:49.847Z,100084.22
2022-08-01T07:49:16.489Z,100087.13
2022-08-01T07:51:43.062Z,100087.72
2022-08-01T07:54:33.936Z,100089.72
2022-08-01T07:57:02.098Z,100082.97
2022-08-01T07:59:28.732Z,100085.31
2022-08-01T08:01:55.361Z,100082.94
2022-08-01T08:04:21.976Z,100079.16
2022-08-01T08:06:48.687Z,100082.53
2022-08-01T08:09:16.207Z,100088.31
2022-08-01T08:11:48.124Z,100089.84
2022-08-01T08:14:16.019Z,100088.81
2022-08-01T08:16:43.771Z,100088.34
2022-08-01T08:19:10.747Z,100095.78
2022-08-01T08:21:38.774Z,100095.19
2022-08-01T08:24:31.714Z,100096.63
2022-08-01T08:27:00.353Z,100101.81
2022-08-01T08:29:28.025Z,100113.84
2022-08-01T08:31:58.627Z,100112.09
2022-08-01T08:34:26.891Z,100126.63
2022-08-01T08:36:55.584Z,100121.72
2022-08-01T08:39:22.170Z,100130.00
2022-08-01T08:41:50.019Z,100129.66
2022-08-01T08:44:20.555Z,100129.75
2022-08-01T08:46:49.999Z,100133.22
2022-08-01T08:49:21.971Z,100130.47
2022-08-01T08:51:51.289Z,100136.22
2022-08-01T08:54:21.739Z,100141.50
2022-08-01T08:56:49.485Z,100142.81
2022-08-01T08:59:16.026Z,100140.56
2022-08-01T09:01:43.983Z,100145.59
2022-08-01T09:04:11.987Z,100135.16
2022-08-01T09:06:39.310Z,100131.66
2022-08-01T09:09:07.260Z,100138.94
2022-08-01T09:11:34.452Z,100132.09
2022-08-01T09:14:16.103Z,100135.31
2022-08-01T09:16:48.856Z,100132.13
2022-08-01T09:19:40.526Z,100127.03
2022-08-01T09:22:08.816Z,100124.22
2022-08-01T09:24:36.880Z,100125.53
2022-08-01T09:27:21.964Z,100128.00
2022-08-01T09:30:01.134Z,100134.84
2022-08-01T09:32:36.053Z,100127.53
2022-08-01T09:35:30.890Z,100119.66
2022-08-01T09:38:16.628Z,100117.75
2022-08-01T09:40:49.413Z,100121.66
2022-08-01T09:43:16.186Z,100117.41
2022-08-01T09:45:43.817Z,100126.19
2022-08-01T09:48:18.933Z,100119.22
2022-08-01T09:50:50.158Z,100117.91
2022-08-01T09:53:24.495Z,100121.91
2022-08-01T09:56:10.678Z,100124.94
2022-08-01T09:59:00.420Z,100125.56
2022-08-01T10:01:36.569Z,100124.63
2022-08-01T10:04:20.638Z,100126.00
2022-08-01T10:06:55.861Z,100126.78
2022-08-01T10:09:39.619Z,100121.94
2022-08-01T10:12:08.839Z,100128.72
2022-08-01T10:14:37.699Z,100135.59
2022-08-01T10:17:07.863Z,100135.19
2022-08-01T10:19:38.870Z,100138.34
2022-08-01T10:22:08.554Z,100139.50
2022-08-01T10:24:41.083Z,100123.84
2022-08-01T10:27:12.400Z,100126.69
2022-08-01T10:30:05.156Z,100125.22
2022-08-01T10:32:34.284Z,100125.81
2022-08-01T10:35:06.808Z,100126.44
2022-08-01T10:37:52.440Z,100118.75
2022-08-01T10:40:36.992Z,100114.97
2022-08-01T10:43:04.648Z,100114.44
2022-08-01T10:45:31.781Z,100115.91
2022-08-01T10:48:03.287Z,100107.31
2022-08-01T10:50:43.348Z,100106.25
2022-08-01T10:53:24.426Z,100107.66
2022-08-01T10:56:04.256Z,100105.16
2022-08-01T10:58:42.774Z,100097.38
2022-08-01T11:01:23.341Z,100102.66
2022-08-01T11:04:01.574Z,100097.94
2022-08-01T11:06:34.336Z,100096.22
2022-08-01T11:09:36.977Z,100088.66
2022-08-01T11:12:23.145Z,100078.91
2022-08-01T11:14:59.679Z,100090.03
2022-08-01T11:17:37.553Z,100087.22
2022-08-01T11:20:34.253Z,100085.22
2022-08-01T11:23:02.046Z,100083.22
2022-08-01T11:26:05.601Z,100090.72
2022-08-01T11:28:32.307Z,100086.63
2022-08-01T11:31:14.032Z,100091.66
2022-08-01T11:33:40.659Z,100087.47
2022-08-01T11:36:36.992Z,100085.19
2022-08-01T11:39:13.812Z,100082.63
2022-08-01T11:41:42.010Z,100078.13
2022-08-01T11:44:17.246Z,100078.28
2022-08-01T11:47:09.991Z,100076.78
2022-08-01T11:49:55.961Z,100084.69
2022-08-01T11:52:32.706Z,100084.16
2022-08-01T11:55:10.351Z,100086.53
2022-08-01T11:57:41.054Z,100074.88
2022-08-01T12:00:17.431Z,100082.38
2022-08-01T12:02:58.857Z,100084.50
2022-08-01T12:05:26.560Z,100080.53
2022-08-01T12:07:55.978Z,100077.44
2022-08-01T12:10:25.416Z,100073.47
2022-08-01T12:13:00.110Z,100080.28
2022-08-01T12:15:32.134Z,100071.28
2022-08-01T12:18:01.577Z,100083.81
2022-08-01T12:20:31.891Z,100074.78
2022-08-01T12:23:10.157Z,100075.81
2022-08-01T12:25:38.072Z,100076.09
2022-08-01T12:28:06.639Z,100076.06
2022-08-01T12:30:38.214Z,100076.50
2022-08-01T12:33:10.604Z,100083.06
2022-08-01T12:35:39.348Z,100082.78
2022-08-01T12:38:07.410Z,100070.88
2022-08-01T12:40:38.225Z,100075.44
2022-08-01T12:43:09.258Z,100076.59
2022-08-01T12:45:54.360Z,100071.16
2022-08-01T12:48:24.593Z,100063.88
2022-08-01T12:50:53.488Z,100065.94
2022-08-01T12:53:21.507Z,100064.31
2022-08-01T12:55:58.313Z,100073.78
2022-08-01T12:58:32.418Z,100067.81
2022-08-01T13:01:14.154Z,100062.69
2022-08-01T13:03:41.327Z,100067.69
2022-08-01T13:06:16.551Z,100068.59
2022-08-01T13:08:44.749Z,100069.31
2022-08-01T13:11:16.622Z,100067.59
2022-08-01T13:13:53.685Z,100062.63
2022-08-01T13:16:27.907Z,100062.38
2022-08-01T13:19:01.579Z,100059.53
2022-08-01T13:21:52.135Z,100051.22
2022-08-01T13:24:17.233Z,100056.31
2022-08-01T13:26:52.111Z,100046.56
2022-08-01T13:29:21.713Z,100052.59
2022-08-01T13:31:48.905Z,100047.88
2022-08-01T13:34:16.134Z,100038.84
2022-08-01T13:36:49.010Z,100035.88
2022-08-01T13:39:35.661Z,100043.16
2022-08-01T13:42:02.300Z,100040.09
2022-08-01T13:44:28.862Z,100043.25
2022-08-01T13:46:57.178Z,100041.31
2022-08-01T13:49:24.401Z,100029.84
2022-08-01T13:51:51.684Z,100037.91
2022-08-01T13:54:19.053Z,100037.56
2022-08-01T13:56:45.723Z,100031.84
2022-08-01T13:59:12.556Z,100047.25
2022-08-01T14:01:39.190Z,100033.50
2022-08-01T14:04:06.166Z,100042.09
2022-08-01T14:06:33.815Z,100034.94
2022-08-01T14:09:01.342Z,100041.63
2022-08-01T14:11:30.642Z,100042.78
2022-08-01T14:14:04.783Z,100045.38
2022-08-01T14:16:35.294Z,100037.19
2022-08-01T14:19:04.039Z,100036.25
2022-08-01T14:21:30.707Z,100042.75
2022-08-01T14:23:57.208Z,100043.97
2022-08-01T14:26:23.795Z,100044.59
2022-08-01T14:28:50.393Z,100040.59
2022-08-01T14:31:16.913Z,100047.22
2022-08-01T14:33:43.484Z,100050.53
2022-08-01T14:36:30.761Z,100058.78
2022-08-01T14:39:00.204Z,100048.19
2022-08-01T14:41:28.150Z,100047.81
2022-08-01T14:43:54.758Z,100046.19
2022-08-01T14:46:21.370Z,100044.13
2022-08-01T14:48:47.986Z,100044.19
2022-08-01T14:51:14.576Z,100045.34
2022-08-01T14:53:45.833Z,100036.56
2022-08-01T14:56:13.259Z,100040.28
2022-08-01T14:58:39.784Z,100040.72
2022-08-01T15:01:06.870Z,100032.75
2022-08-01T15:03:33.830Z,100034.94
2022-08-01T15:06:00.578Z,100029.88
2022-08-01T15:08:27.461Z,100036.59
2022-08-01T15:10:54.023Z,100049.06
2022-08-01T15:13:20.722Z,100031.59
2022-08-01T15:15:47.922Z,100029.66
2022-08-01T15:18:14.634Z,100025.72
2022-08-01T15:20:41.713Z,100033.91
2022-08-01T15:23:08.387Z,100030.00
2022-08-01T15:25:40.897Z,100039.13
2022-08-01T15:28:12.403Z,100035.94
2022-08-01T15:30:39.657Z,100040.09
2022-08-01T15:33:06.487Z,100037.19
2022-08-01T15:35:33.435Z,100034.81
2022-08-01T15:38:00.091Z,100036.94
2022-08-01T15:40:27.700Z,100034.03
2022-08-01T15:42:54.292Z,100034.75
2022-08-01T15:45:47.245Z,100040.44
2022-08-01T15:48:08.923Z,100034.09
2022-08-01T15:50:35.641Z,100036.72
2022-08-01T15:53:02.222Z,100036.00
2022-08-01T15:55:28.819Z,100032.09
2022-08-01T15:57:56.065Z,100034.13
2022-08-01T16:00:22.821Z,100040.25
2022-08-01T16:02:50.546Z,100042.41
2022-08-01T16:05:20.469Z,100029.72
2022-08-01T16:07:59.235Z,100037.66
2022-08-01T16:10:28.835Z,100042.78
2022-08-01T16:12:55.384Z,100046.81
2022-08-01T16:15:22.693Z,100036.78
2022-08-01T16:18:01.986Z,100048.03
2022-08-01T16:20:29.262Z,100054.53
2022-08-01T16:22:55.825Z,100041.44
2022-08-01T16:25:22.399Z,100045.72
2022-08-01T16:27:48.984Z,100031.31
2022-08-01T16:30:15.568Z,100035.44
2022-08-01T16:32:45.449Z,100045.34
2022-08-01T16:35:15.416Z,100036.50
2022-08-01T16:37:42.624Z,100036.31
2022-08-01T16:40:09.568Z,100047.97
2022-08-01T16:42:36.153Z,100040.84
2022-08-01T16:45:08.655Z,100040.56
2022-08-01T16:47:39.511Z,100040.44
2022-08-01T16:50:06.398Z,100037.97
2022-08-01T16:52:32.907Z,100035.66
2022-08-01T16:54:59.516Z,100035.59
2022-08-01T16:57:26.039Z,100041.16
2022-08-01T16:59:52.607Z,100048.91
2022-08-01T17:02:19.175Z,100051.53
2022-08-01T17:04:45.763Z,100046.78
2022-08-01T17:07:12.309Z,100051.94
2022-08-01T17:09:43.323Z,100048.81
2022-08-01T17:12:10.675Z,100056.31
2022-08-01T17:14:39.871Z,100051.94
2022-08-01T17:17:07.387Z,100046.91
2022-08-01T17:19:34.437Z,100054.59
2022-08-01T17:22:01.065Z,100049.28
2022-08-01T17:24:27.903Z,100053.66
2022-08-01T17:26:54.571Z,100056.84
2022-08-01T17:29:21.203Z,100061.72
2022-08-01T17:31:47.898Z,100060.13
2022-08-01T17:34:14.666Z,100069.25
2022-08-01T17:36:41.411Z,100068.59
2022-08-01T17:39:08.821Z,100069.31
2022-08-01T17:41:35.619Z,100062.91
2022-08-01T17:44:02.216Z,100072.38
2022-08-01T17:46:28.736Z,100072.88
2022-08-01T17:48:55.323Z,100085.34
2022-08-01T17:51:23.003Z,100079.44
2022-08-01T17:53:56.132Z,100079.09
2022-08-01T17:56:24.462Z,100079.31
2022-08-01T17:58:52.246Z,100070.88
2022-08-01T18:01:20.545Z,100075.41
2022-08-01T18:03:48.065Z,100073.06
2022-08-01T18:06:19.371Z,100076.50
2022-08-01T18:08:47.153Z,100080.28
2022-08-01T18:11:15.085Z,100080.19
2022-08-01T18:13:41.669Z,100080.38
2022-08-01T18:16:11.292Z,100085.75
2022-08-01T18:18:39.108Z,100083.47
2022-08-01T18:21:07.061Z,100086.66
2022-08-01T18:23:35.095Z,100078.50
2022-08-01T18:26:03.049Z,100085.50
2022-08-01T18:28:34.049Z,100090.75
2022-08-01T18:31:03.587Z,100093.38
2022-08-01T18:33:30.184Z,100093.25
2022-08-01T18:36:03.793Z,100102.22
2022-08-01T18:38:33.173Z,100100.78
2022-08-01T18:41:00.770Z,100101.53
2022-08-01T18:43:27.629Z,100109.56
2022-08-01T18:45:56.936Z,100109.25
2022-08-01T18:48:23.643Z,100111.84
2022-08-01T18:50:50.175Z,100119.09
2022-08-01T18:53:18.768Z,100121.13
2022-08-01T18:55:46.127Z,100123.63
2022-08-01T18:58:12.705Z,100125.72
2022-08-01T19:00:39.990Z,100130.84
2022-08-01T19:03:07.751Z,100126.81
2022-08-01T19:05:35.819Z,100132.66
2022-08-01T19:08:06.822Z,100132.66
2022-08-01T19:10:36.108Z,100125.47
2022-08-01T19:13:03.040Z,100132.19
2022-08-01T19:15:29.842Z,100137.75
2022-08-01T19:17:56.478Z,100144.97
2022-08-01T19:20:23.247Z,100142.97
2022-08-01T19:22:51.923Z,100144.41
2022-08-01T19:25:18.498Z,100147.88
2022-08-01T19:27:48.065Z,100152.19
2022-08-01T19:30:17.319Z,100151.72
2022-08-01T19:32:45.817Z,100156.88
2022-08-01T19:35:14.586Z,100161.44
2022-08-01T19:37:47.247Z,100159.75
2022-08-01T19:40:26.834Z,100161.69
2022-08-01T19:42:56.402Z,100157.03
2022-08-01T19:45:23.174Z,100161.69
2022-08-01T19:47:57.316Z,100160.13
2022-08-01T19:50:29.158Z,100162.91
2022-08-01T19:52:57.587Z,100157.13
2022-08-01T19:55:25.184Z,100161.91
2022-08-01T19:58:26.307Z,100162.97
2022-08-01T20:00:40.621Z,100163.19
2022-08-01T20:03:09.092Z,100164.13
2022-08-01T20:05:37.260Z,100157.56
2022-08-01T20:08:06.675Z,100160.88
2022-08-01T20:10:34.191Z,100159.19
2022-08-01T20:13:01.424Z,100158.69
2022-08-01T20:15:29.323Z,100163.00
2022-08-01T20:17:59.634Z,100164.84
2022-08-01T20:20:27.523Z,100168.81
2022-08-01T20:22:56.932Z,100164.50
2022-08-01T20:25:32.070Z,100161.16
2022-08-01T20:28:08.716Z,100162.66
2022-08-01T20:30:35.348Z,100159.09
2022-08-01T20:33:01.912Z,100162.38
2022-08-01T20:35:51.454Z,100162.09
2022-08-01T20:38:17.342Z,100170.19
2022-08-01T20:40:45.584Z,100164.88
2022-08-01T20:43:12.327Z,100170.44
2022-08-01T20:45:39.248Z,100166.06
2022-08-01T20:48:08.068Z,100172.97
2022-08-01T20:50:54.911Z,100171.13
2022-08-01T20:53:24.428Z,100180.50
2022-08-01T20:56:00.803Z,100171.91
2022-08-01T20:58:37.000Z,100178.16
2022-08-01T21:01:09.663Z,100188.13
2022-08-01T21:03:45.345Z,100177.63
2022-08-01T21:06:14.751Z,100180.06
2022-08-01T21:08:44.135Z,100183.66
2022-08-01T21:11:19.530Z,100174.59
2022-08-01T21:13:48.069Z,100179.69
2022-08-01T21:16:25.339Z,100190.75
2022-08-01T21:21:51.004Z,100191.50
2022-08-01T21:24:18.961Z,100187.13
2022-08-01T21:26:46.531Z,100189.09
2022-08-01T21:29:13.977Z,100182.16
2022-08-01T21:31:41.661Z,100189.53
2022-08-01T21:34:09.217Z,100180.66
2022-08-01T21:36:36.678Z,100187.22
2022-08-01T21:39:05.844Z,100190.25
2022-08-01T21:41:56.742Z,100198.91
2022-08-01T21:44:20.019Z,100187.53
2022-08-01T21:46:48.242Z,100191.75
2022-08-01T21:49:14.998Z,100187.94
2022-08-01T21:51:51.673Z,100193.47
2022-08-01T21:54:28.542Z,100193.47
2022-08-01T21:57:14.261Z,100191.81
2022-08-01T22:00:02.181Z,100196.25
2022-08-01T22:02:36.621Z,100198.38
2022-08-01T22:05:09.259Z,100196.91
2022-08-01T22:07:45.983Z,100190.63
2022-08-01T22:10:18.375Z,100201.56
2022-08-01T22:12:46.180Z,100195.66
2022-08-01T22:15:14.077Z,100193.78
2022-08-01T22:17:41.855Z,100200.53
2022-08-01T22:20:09.215Z,100202.25
2022-08-01T22:22:51.429Z,100202.09
2022-08-01T22:25:21.087Z,100204.81
2022-08-01T22:28:06.335Z,100200.00
2022-08-01T22:30:39.886Z,100203.16
2022-08-01T22:33:17.129Z,100202.53
2022-08-01T22:35:55.563Z,100202.72
2022-08-01T22:38:24.392Z,100209.69
2022-08-01T22:40:51.038Z,100204.00
2022-08-01T22:43:29.377Z,100212.84
2022-08-01T22:46:14.602Z,100209.06
2022-08-01T22:48:51.231Z,100212.19
2022-08-01T22:51:38.241Z,100218.91
2022-08-01T22:54:09.853Z,100216.16
2022-08-01T22:56:41.449Z,100212.13
2022-08-01T22:59:13.852Z,100210.69
2022-08-01T23:01:47.552Z,100205.81
2022-08-01T23:04:35.140Z,100206.25
2022-08-01T23:07:05.915Z,100210.25
2022-08-01T23:09:52.972Z,100211.66
2022-08-01T23:12:24.496Z,100207.03
2022-08-01T23:14:57.290Z,100210.16
2022-08-01T23:17:28.802Z,100213.94
2022-08-01T23:20:01.657Z,100213.28
2022-08-01T23:22:31.210Z,100211.81
2022-08-01T23:25:05.057Z,100219.97
2022-08-01T23:27:51.540Z,100211.50
2022-08-01T23:30:25.386Z,100215.28
2022-08-01T23:32:51.887Z,100212.31
2022-08-01T23:35:18.464Z,100210.63
2022-08-01T23:37:45.133Z,100211.88
2022-08-01T23:40:12.315Z,100206.78
2022-08-01T23:42:38.991Z,100212.69
2022-08-01T23:45:07.005Z,100208.28
2022-08-01T23:47:33.601Z,100213.06
2022-08-01T23:50:00.278Z,100206.09
2022-08-01T23:52:32.339Z,100215.94
2022-08-01T23:55:04.523Z,100207.09
2022-08-01T23:57:41.777Z,100207.31
